sensor_id;sensor_type;location;lat;lon;timestamp;pressure;altitude;pressure_sealevel;temperature;humidity
80116;BME280;69423;47.608;19.366;2024-01-16T00:00:05;97624.97;;;-0.84;81.21
80116;BME280;69423;47.608;19.366;2024-01-16T00:00:37;97623.91;;;-0.81;80.82
80116;BME280;69423;47.608;19.366;2024-01-16T00:01:08;97624.31;;;-0.86;81.23
80116;BME280;69423;47.608;19.366;2024-01-16T00:01:43;97634.78;;;-0.86;81.40
80116;BME280;69423;47.608;19.366;2024-01-16T00:02:14;97626.09;;;-0.86;81.68
80116;BME280;69423;47.608;19.366;2024-01-16T00:02:45;97628.59;;;-0.85;81.91
80116;BME280;69423;47.608;19.366;2024-01-16T00:03:16;97632.69;;;-0.82;81.48
80116;BME280;69423;47.608;19.366;2024-01-16T00:03:47;97631.75;;;-0.81;81.41
80116;BME280;69423;47.608;19.366;2024-01-16T00:04:18;97634.19;;;-0.79;81.67
80116;BME280;69423;47.608;19.366;2024-01-16T00:04:49;97628.59;;;-0.85;81.50
80116;BME280;69423;47.608;19.366;2024-01-16T00:05:20;97639.88;;;-0.84;82.11
80116;BME280;69423;47.608;19.366;2024-01-16T00:05:51;97634.50;;;-0.83;82.26
80116;BME280;69423;47.608;19.366;2024-01-16T00:06:22;97633.50;;;-0.82;81.85
80116;BME280;69423;47.608;19.366;2024-01-16T00:06:53;97633.50;;;-0.82;81.86
80116;BME280;69423;47.608;19.366;2024-01-16T00:07:24;97633.00;;;-0.85;81.90
80116;BME280;69423;47.608;19.366;2024-01-16T00:07:56;97640.41;;;-0.80;81.88
80116;BME280;69423;47.608;19.366;2024-01-16T00:08:30;97640.41;;;-0.80;81.91
80116;BME280;69423;47.608;19.366;2024-01-16T00:09:01;97634.06;;;-0.78;81.90
80116;BME280;69423;47.608;19.366;2024-01-16T00:09:33;97639.97;;;-0.76;81.98
80116;BME280;69423;47.608;19.366;2024-01-16T00:10:07;97636.97;;;-0.81;82.09
80116;BME280;69423;47.608;19.366;2024-01-16T00:10:38;97635.31;;;-0.82;82.03
80116;BME280;69423;47.608;19.366;2024-01-16T00:11:09;97633.00;;;-0.85;82.45
80116;BME280;69423;47.608;19.366;2024-01-16T00:11:41;97634.94;;;-0.87;82.43
80116;BME280;69423;47.608;19.366;2024-01-16T00:12:12;97638.91;;;-0.83;82.40
80116;BME280;69423;47.608;19.366;2024-01-16T00:12:43;97644.28;;;-0.85;82.48
80116;BME280;69423;47.608;19.366;2024-01-16T00:13:14;97636.28;;;-0.83;82.75
80116;BME280;69423;47.608;19.366;2024-01-16T00:13:45;97642.47;;;-0.84;82.21
80116;BME280;69423;47.608;19.366;2024-01-16T00:14:16;97642.22;;;-0.81;82.34
80116;BME280;69423;47.608;19.366;2024-01-16T00:14:48;97644.81;;;-0.81;82.93
80116;BME280;69423;47.608;19.366;2024-01-16T00:15:19;97650.88;;;-0.80;82.26
80116;BME280;69423;47.608;19.366;2024-01-16T00:15:50;97649.06;;;-0.80;82.43
80116;BME280;69423;47.608;19.366;2024-01-16T00:16:21;97639.59;;;-0.81;82.36
80116;BME280;69423;47.608;19.366;2024-01-16T00:16:52;97648.41;;;-0.82;82.60
80116;BME280;69423;47.608;19.366;2024-01-16T00:17:23;97646.47;;;-0.80;82.72
80116;BME280;69423;47.608;19.366;2024-01-16T00:17:54;97650.56;;;-0.77;82.81
80116;BME280;69423;47.608;19.366;2024-01-16T00:18:25;97650.06;;;-0.81;82.43
80116;BME280;69423;47.608;19.366;2024-01-16T00:18:56;97660.53;;;-0.81;82.53
80116;BME280;69423;47.608;19.366;2024-01-16T00:19:27;97655.00;;;-0.78;82.76
80116;BME280;69423;47.608;19.366;2024-01-16T00:19:58;97656.94;;;-0.80;82.85
80116;BME280;69423;47.608;19.366;2024-01-16T00:20:32;97664.53;;;-0.87;83.43
80116;BME280;69423;47.608;19.366;2024-01-16T00:21:03;97657.22;;;-0.83;83.41
80116;BME280;69423;47.608;19.366;2024-01-16T00:21:39;97659.69;;;-0.82;83.29
80116;BME280;69423;47.608;19.366;2024-01-16T00:22:10;97664.91;;;-0.82;82.74
80116;BME280;69423;47.608;19.366;2024-01-16T00:22:41;97661.22;;;-0.79;82.97
80116;BME280;69423;47.608;19.366;2024-01-16T00:23:12;97666.16;;;-0.76;82.75
80116;BME280;69423;47.608;19.366;2024-01-16T00:23:43;97665.47;;;-0.78;83.04
80116;BME280;69423;47.608;19.366;2024-01-16T00:24:14;97674.56;;;-0.82;82.80
80116;BME280;69423;47.608;19.366;2024-01-16T00:24:45;97668.50;;;-0.83;83.29
80116;BME280;69423;47.608;19.366;2024-01-16T00:25:17;97682.41;;;-0.82;83.22
80116;BME280;69423;47.608;19.366;2024-01-16T00:25:50;97680.78;;;-0.83;83.56
80116;BME280;69423;47.608;19.366;2024-01-16T00:26:22;97675.13;;;-0.78;83.15
80116;BME280;69423;47.608;19.366;2024-01-16T00:26:53;97684.75;;;-0.79;83.12
80116;BME280;69423;47.608;19.366;2024-01-16T00:27:24;97683.91;;;-0.79;83.57
80116;BME280;69423;47.608;19.366;2024-01-16T00:27:55;97683.50;;;-0.75;83.27
80116;BME280;69423;47.608;19.366;2024-01-16T00:28:26;97679.53;;;-0.79;83.14
80116;BME280;69423;47.608;19.366;2024-01-16T00:28:57;97679.91;;;-0.74;82.91
80116;BME280;69423;47.608;19.366;2024-01-16T00:29:28;97683.91;;;-0.79;83.56
80116;BME280;69423;47.608;19.366;2024-01-16T00:30:01;97678.28;;;-0.75;83.44
80116;BME280;69423;47.608;19.366;2024-01-16T00:30:32;97682.25;;;-0.71;83.41
80116;BME280;69423;47.608;19.366;2024-01-16T00:31:07;97672.59;;;-0.70;83.55
80116;BME280;69423;47.608;19.366;2024-01-16T00:31:39;97677.53;;;-0.67;83.53
80116;BME280;69423;47.608;19.366;2024-01-16T00:32:10;97680.03;;;-0.66;83.22
80116;BME280;69423;47.608;19.366;2024-01-16T00:32:44;97682.34;;;-0.63;83.05
80116;BME280;69423;47.608;19.366;2024-01-16T00:33:15;97689.25;;;-0.62;82.89
80116;BME280;69423;47.608;19.366;2024-01-16T00:33:46;97689.25;;;-0.62;83.10
80116;BME280;69423;47.608;19.366;2024-01-16T00:34:17;97689.91;;;-0.59;83.14
80116;BME280;69423;47.608;19.366;2024-01-16T00:34:48;97700.38;;;-0.59;82.92
80116;BME280;69423;47.608;19.366;2024-01-16T00:35:19;97687.56;;;-0.63;83.16
80116;BME280;69423;47.608;19.366;2024-01-16T00:35:50;97688.25;;;-0.61;82.80
80116;BME280;69423;47.608;19.366;2024-01-16T00:36:21;97697.09;;;-0.62;83.24
80116;BME280;69423;47.608;19.366;2024-01-16T00:36:52;97694.75;;;-0.65;83.22
80116;BME280;69423;47.608;19.366;2024-01-16T00:37:23;97695.84;;;-0.67;83.02
80116;BME280;69423;47.608;19.366;2024-01-16T00:37:54;97688.56;;;-0.64;83.37
80116;BME280;69423;47.608;19.366;2024-01-16T00:38:25;97688.56;;;-0.64;83.06
80116;BME280;69423;47.608;19.366;2024-01-16T00:38:56;97681.97;;;-0.68;82.94
80116;BME280;69423;47.608;19.366;2024-01-16T00:39:27;97686.25;;;-0.67;83.20
80116;BME280;69423;47.608;19.366;2024-01-16T00:39:58;97695.34;;;-0.71;83.36
80116;BME280;69423;47.608;19.366;2024-01-16T00:40:29;97697.97;;;-0.71;83.33
80116;BME280;69423;47.608;19.366;2024-01-16T00:41:01;97694.50;;;-0.71;83.14
80116;BME280;69423;47.608;19.366;2024-01-16T00:41:32;97694.09;;;-0.67;83.08
80116;BME280;69423;47.608;19.366;2024-01-16T00:42:03;97696.28;;;-0.62;83.26
80116;BME280;69423;47.608;19.366;2024-01-16T00:42:34;97694.59;;;-0.63;83.39
80116;BME280;69423;47.608;19.366;2024-01-16T00:43:05;97689.91;;;-0.59;82.99
80116;BME280;69423;47.608;19.366;2024-01-16T00:43:36;97697.63;;;-0.58;83.40
80116;BME280;69423;47.608;19.366;2024-01-16T00:44:07;97701.22;;;-0.59;82.93
80116;BME280;69423;47.608;19.366;2024-01-16T00:44:38;97690.59;;;-0.57;82.97
80116;BME280;69423;47.608;19.366;2024-01-16T00:45:09;97693.09;;;-0.56;83.27
80116;BME280;69423;47.608;19.366;2024-01-16T00:45:40;97701.50;;;-0.62;83.27
80116;BME280;69423;47.608;19.366;2024-01-16T00:46:12;97694.34;;;-0.60;83.13
80116;BME280;69423;47.608;19.366;2024-01-16T00:46:43;97703.69;;;-0.57;83.20
80116;BME280;69423;47.608;19.366;2024-01-16T00:47:14;97699.13;;;-0.55;83.29
80116;BME280;69423;47.608;19.366;2024-01-16T00:47:45;97697.88;;;-0.51;83.02
80116;BME280;69423;47.608;19.366;2024-01-16T00:48:16;97700.38;;;-0.50;82.78
80116;BME280;69423;47.608;19.366;2024-01-16T00:48:47;97701.44;;;-0.52;82.77
80116;BME280;69423;47.608;19.366;2024-01-16T00:49:18;97700.19;;;-0.48;82.88
80116;BME280;69423;47.608;19.366;2024-01-16T00:49:50;97708.72;;;-0.46;82.71
80116;BME280;69423;47.608;19.366;2024-01-16T00:50:21;97711.34;;;-0.46;82.28
80116;BME280;69423;47.608;19.366;2024-01-16T00:50:53;97708.72;;;-0.46;82.30
80116;BME280;69423;47.608;19.366;2024-01-16T00:51:24;97710.84;;;-0.50;82.69
80116;BME280;69423;47.608;19.366;2024-01-16T00:51:55;97710.53;;;-0.47;82.48
80116;BME280;69423;47.608;19.366;2024-01-16T00:52:26;97713.28;;;-0.48;82.57
80116;BME280;69423;47.608;19.366;2024-01-16T00:52:57;97719.88;;;-0.44;82.58
80116;BME280;69423;47.608;19.366;2024-01-16T00:53:28;97713.56;;;-0.42;82.29
80116;BME280;69423;47.608;19.366;2024-01-16T00:53:59;97719.63;;;-0.41;82.29
80116;BME280;69423;47.608;19.366;2024-01-16T00:54:30;97720.75;;;-0.44;82.44
80116;BME280;69423;47.608;19.366;2024-01-16T00:55:01;97724.84;;;-0.41;82.59
80116;BME280;69423;47.608;19.366;2024-01-16T00:55:33;97720.56;;;-0.42;82.51
80116;BME280;69423;47.608;19.366;2024-01-16T00:56:04;97717.69;;;-0.39;82.40
80116;BME280;69423;47.608;19.366;2024-01-16T00:56:36;97713.94;;;-0.36;82.28
80116;BME280;69423;47.608;19.366;2024-01-16T00:57:07;97720.66;;;-0.34;81.77
80116;BME280;69423;47.608;19.366;2024-01-16T00:57:38;97725.78;;;-0.32;81.88
80116;BME280;69423;47.608;19.366;2024-01-16T00:58:09;97729.63;;;-0.27;81.81
80116;BME280;69423;47.608;19.366;2024-01-16T00:58:40;97723.03;;;-0.31;81.98
80116;BME280;69423;47.608;19.366;2024-01-16T00:59:11;97730.88;;;-0.31;81.70
80116;BME280;69423;47.608;19.366;2024-01-16T00:59:43;97722.72;;;-0.28;81.78
80116;BME280;69423;47.608;19.366;2024-01-16T01:00:14;97720.91;;;-0.27;81.90
80116;BME280;69423;47.608;19.366;2024-01-16T01:00:45;97734.00;;;-0.27;81.36
80116;BME280;69423;47.608;19.366;2024-01-16T01:01:16;97724.22;;;-0.25;81.79
80116;BME280;69423;47.608;19.366;2024-01-16T01:01:47;97724.06;;;-0.24;81.68
80116;BME280;69423;47.608;19.366;2024-01-16T01:02:18;97732.06;;;-0.25;81.27
80116;BME280;69423;47.608;19.366;2024-01-16T01:02:49;97732.06;;;-0.25;81.26
80116;BME280;69423;47.608;19.366;2024-01-16T01:03:20;97736.06;;;-0.21;81.08
80116;BME280;69423;47.608;19.366;2024-01-16T01:03:51;97727.09;;;-0.18;81.02
80116;BME280;69423;47.608;19.366;2024-01-16T01:04:22;97727.78;;;-0.16;81.28
80116;BME280;69423;47.608;19.366;2024-01-16T01:04:53;97737.28;;;-0.15;81.19
80116;BME280;69423;47.608;19.366;2024-01-16T01:05:24;97735.47;;;-0.15;81.16
80116;BME280;69423;47.608;19.366;2024-01-16T01:06:00;97725.16;;;-0.16;80.80
80116;BME280;69423;47.608;19.366;2024-01-16T01:06:31;97719.47;;;-0.12;80.25
80116;BME280;69423;47.608;19.366;2024-01-16T01:07:03;97726.34;;;-0.11;80.60
80116;BME280;69423;47.608;19.366;2024-01-16T01:07:34;97725.53;;;-0.11;80.60
80116;BME280;69423;47.608;19.366;2024-01-16T01:08:05;97729.81;;;-0.10;80.50
80116;BME280;69423;47.608;19.366;2024-01-16T01:08:36;97732.94;;;-0.07;80.57
80116;BME280;69423;47.608;19.366;2024-01-16T01:09:07;97721.50;;;-0.06;80.17
80116;BME280;69423;47.608;19.366;2024-01-16T01:09:38;97733.63;;;-0.05;80.26
80116;BME280;69423;47.608;19.366;2024-01-16T01:10:09;97736.25;;;-0.05;80.13
80116;BME280;69423;47.608;19.366;2024-01-16T01:10:40;97736.94;;;-0.03;80.05
80116;BME280;69423;47.608;19.366;2024-01-16T01:11:11;97735.84;;;0.00;80.27
80116;BME280;69423;47.608;19.366;2024-01-16T01:11:42;97733.22;;;0.00;79.67
80116;BME280;69423;47.608;19.366;2024-01-16T01:12:14;97730.44;;;0.02;80.15
80116;BME280;69423;47.608;19.366;2024-01-16T01:12:44;97725.03;;;0.03;79.98
80116;BME280;69423;47.608;19.366;2024-01-16T01:13:16;97735.84;;;0.00;79.56
80116;BME280;69423;47.608;19.366;2024-01-16T01:13:47;97736.47;;;0.02;79.46
80116;BME280;69423;47.608;19.366;2024-01-16T01:14:18;97732.78;;;0.05;79.59
80116;BME280;69423;47.608;19.366;2024-01-16T01:14:49;97724.50;;;-0.01;79.42
80116;BME280;69423;47.608;19.366;2024-01-16T01:15:20;97731.41;;;0.01;79.86
80116;BME280;69423;47.608;19.366;2024-01-16T01:15:51;97735.16;;;-0.02;79.30
80116;BME280;69423;47.608;19.366;2024-01-16T01:16:22;97734.16;;;-0.01;79.61
80116;BME280;69423;47.608;19.366;2024-01-16T01:16:53;97732.69;;;-0.04;79.49
80116;BME280;69423;47.608;19.366;2024-01-16T01:17:24;97733.50;;;-0.03;79.34
80116;BME280;69423;47.608;19.366;2024-01-16T01:17:55;97736.34;;;0.04;79.40
80116;BME280;69423;47.608;19.366;2024-01-16T01:18:26;97749.16;;;0.07;79.21
80116;BME280;69423;47.608;19.366;2024-01-16T01:18:57;97737.47;;;0.01;79.39
80116;BME280;69423;47.608;19.366;2024-01-16T01:19:28;97736.66;;;0.01;79.76
80116;BME280;69423;47.608;19.366;2024-01-16T01:19:59;97744.34;;;0.02;79.54
80116;BME280;69423;47.608;19.366;2024-01-16T01:20:30;97741.72;;;0.02;79.59
80116;BME280;69423;47.608;19.366;2024-01-16T01:21:01;97742.25;;;0.06;79.23
80116;BME280;69423;47.608;19.366;2024-01-16T01:21:32;97743.09;;;0.06;79.44
80116;BME280;69423;47.608;19.366;2024-01-16T01:22:03;97744.22;;;0.04;79.69
80116;BME280;69423;47.608;19.366;2024-01-16T01:22:35;97748.63;;;0.03;79.51
80116;BME280;69423;47.608;19.366;2024-01-16T01:23:08;97743.09;;;0.06;79.45
80116;BME280;69423;47.608;19.366;2024-01-16T01:23:39;97748.19;;;0.08;79.82
80116;BME280;69423;47.608;19.366;2024-01-16T01:24:10;97748.31;;;0.06;79.66
80116;BME280;69423;47.608;19.366;2024-01-16T01:24:41;97750.25;;;0.04;79.95
80116;BME280;69423;47.608;19.366;2024-01-16T01:25:12;97748.78;;;0.02;79.72
80116;BME280;69423;47.608;19.366;2024-01-16T01:25:43;97750.88;;;-0.02;79.75
80116;BME280;69423;47.608;19.366;2024-01-16T01:26:14;97756.38;;;-0.05;80.01
80116;BME280;69423;47.608;19.366;2024-01-16T01:26:46;97756.81;;;0.00;79.53
80116;BME280;69423;47.608;19.366;2024-01-16T01:27:17;97756.38;;;-0.05;79.98
80116;BME280;69423;47.608;19.366;2024-01-16T01:27:48;97760.50;;;-0.03;79.73
80116;BME280;69423;47.608;19.366;2024-01-16T01:28:19;97753.91;;;-0.07;79.92
80116;BME280;69423;47.608;19.366;2024-01-16T01:28:50;97756.53;;;-0.07;80.17
80116;BME280;69423;47.608;19.366;2024-01-16T01:29:21;97764.56;;;-0.08;79.88
80116;BME280;69423;47.608;19.366;2024-01-16T01:29:52;97756.69;;;-0.08;80.48
80116;BME280;69423;47.608;19.366;2024-01-16T01:30:23;97765.81;;;-0.12;79.98
80116;BME280;69423;47.608;19.366;2024-01-16T01:30:54;97762.63;;;-0.06;79.86
80116;BME280;69423;47.608;19.366;2024-01-16T01:31:25;97767.69;;;-0.05;80.36
80116;BME280;69423;47.608;19.366;2024-01-16T01:31:56;97767.56;;;-0.03;80.05
80116;BME280;69423;47.608;19.366;2024-01-16T01:32:27;97763.00;;;-0.01;80.14
80116;BME280;69423;47.608;19.366;2024-01-16T01:32:58;97766.59;;;-0.02;79.87
80116;BME280;69423;47.608;19.366;2024-01-16T01:33:29;97767.41;;;-0.02;79.43
80116;BME280;69423;47.608;19.366;2024-01-16T01:34:00;97766.59;;;-0.02;79.89
80116;BME280;69423;47.608;19.366;2024-01-16T01:34:31;97765.75;;;-0.03;79.61
80116;BME280;69423;47.608;19.366;2024-01-16T01:35:02;97767.28;;;0.00;79.37
80116;BME280;69423;47.608;19.366;2024-01-16T01:35:33;97770.94;;;0.07;79.71
80116;BME280;69423;47.608;19.366;2024-01-16T01:36:05;97777.56;;;0.11;79.63
80116;BME280;69423;47.608;19.366;2024-01-16T01:36:36;97777.56;;;0.11;79.15
80116;BME280;69423;47.608;19.366;2024-01-16T01:37:07;97764.91;;;0.07;79.21
80116;BME280;69423;47.608;19.366;2024-01-16T01:37:38;97777.00;;;0.08;79.08
80116;BME280;69423;47.608;19.366;2024-01-16T01:38:09;97787.22;;;0.11;78.95
80116;BME280;69423;47.608;19.366;2024-01-16T01:38:40;97775.88;;;0.10;79.29
80116;BME280;69423;47.608;19.366;2024-01-16T01:39:11;97781.66;;;0.14;78.85
80116;BME280;69423;47.608;19.366;2024-01-16T01:39:42;97778.09;;;0.15;79.27
80116;BME280;69423;47.608;19.366;2024-01-16T01:40:13;97776.84;;;0.19;78.82
80116;BME280;69423;47.608;19.366;2024-01-16T01:40:46;97780.03;;;0.13;79.17
80116;BME280;69423;47.608;19.366;2024-01-16T01:41:17;97779.72;;;0.16;78.51
80116;BME280;69423;47.608;19.366;2024-01-16T01:41:48;97781.22;;;0.18;79.04
80116;BME280;69423;47.608;19.366;2024-01-16T01:42:19;97772.41;;;0.19;78.90
80116;BME280;69423;47.608;19.366;2024-01-16T01:42:50;97785.66;;;0.18;78.68
80116;BME280;69423;47.608;19.366;2024-01-16T01:43:23;97786.34;;;0.20;78.82
80116;BME280;69423;47.608;19.366;2024-01-16T01:43:54;97791.28;;;0.23;78.71
80116;BME280;69423;47.608;19.366;2024-01-16T01:44:25;97775.97;;;0.18;78.69
80116;BME280;69423;47.608;19.366;2024-01-16T01:44:57;97779.44;;;0.19;78.89
80116;BME280;69423;47.608;19.366;2024-01-16T01:45:27;97781.09;;;0.20;78.78
80116;BME280;69423;47.608;19.366;2024-01-16T01:46:17;97782.06;;;0.19;78.85
80116;BME280;69423;47.608;19.366;2024-01-16T01:46:48;97782.88;;;0.19;78.88
80116;BME280;69423;47.608;19.366;2024-01-16T01:47:19;97778.59;;;0.18;78.08
80116;BME280;69423;47.608;19.366;2024-01-16T01:47:51;97782.22;;;0.17;78.07
80116;BME280;69423;47.608;19.366;2024-01-16T01:48:22;97777.50;;;0.21;78.25
80116;BME280;69423;47.608;19.366;2024-01-16T01:48:54;97779.59;;;0.17;78.33
80116;BME280;69423;47.608;19.366;2024-01-16T01:49:27;97784.44;;;0.12;78.02
80116;BME280;69423;47.608;19.366;2024-01-16T01:49:58;97784.06;;;0.07;78.28
80116;BME280;69423;47.608;19.366;2024-01-16T01:50:29;97786.38;;;0.10;77.98
80116;BME280;69423;47.608;19.366;2024-01-16T01:51:01;97780.03;;;0.13;78.44
80116;BME280;69423;47.608;19.366;2024-01-16T01:51:33;97786.09;;;0.13;78.65
80116;BME280;69423;47.608;19.366;2024-01-16T01:52:05;97781.97;;;0.11;78.11
80116;BME280;69423;47.608;19.366;2024-01-16T01:52:39;97784.59;;;0.11;78.11
80116;BME280;69423;47.608;19.366;2024-01-16T01:53:11;97786.38;;;0.10;78.63
80116;BME280;69423;47.608;19.366;2024-01-16T01:53:44;97778.50;;;0.10;77.99
80116;BME280;69423;47.608;19.366;2024-01-16T01:54:16;97777.31;;;0.05;78.24
80116;BME280;69423;47.608;19.366;2024-01-16T01:54:48;97781.88;;;0.03;78.10
80116;BME280;69423;47.608;19.366;2024-01-16T01:55:21;97787.63;;;0.06;78.51
80116;BME280;69423;47.608;19.366;2024-01-16T01:55:52;97788.03;;;0.11;78.44
80116;BME280;69423;47.608;19.366;2024-01-16T01:56:24;97787.22;;;0.11;77.88
80116;BME280;69423;47.608;19.366;2024-01-16T01:56:55;97788.31;;;0.08;78.32
80116;BME280;69423;47.608;19.366;2024-01-16T01:57:27;97784.19;;;0.06;78.12
80116;BME280;69423;47.608;19.366;2024-01-16T01:57:58;97795.50;;;0.06;78.09
80116;BME280;69423;47.608;19.366;2024-01-16T01:58:29;97788.16;;;0.10;78.18
80116;BME280;69423;47.608;19.366;2024-01-16T01:59:01;97793.72;;;0.07;78.39
80116;BME280;69423;47.608;19.366;2024-01-16T01:59:33;97793.56;;;0.08;77.79
80116;BME280;69423;47.608;19.366;2024-01-16T02:00:05;97798.13;;;0.06;78.10
80116;BME280;69423;47.608;19.366;2024-01-16T02:00:37;97800.22;;;0.03;77.93
80116;BME280;69423;47.608;19.366;2024-01-16T02:01:09;97797.19;;;-0.03;78.19
80116;BME280;69423;47.608;19.366;2024-01-16T02:01:42;97788.50;;;-0.03;78.19
80116;BME280;69423;47.608;19.366;2024-01-16T02:02:13;97798.03;;;-0.02;78.01
80116;BME280;69423;47.608;19.366;2024-01-16T02:02:45;97798.84;;;-0.02;77.97
80116;BME280;69423;47.608;19.366;2024-01-16T02:03:17;97806.19;;;-0.05;77.94
80116;BME280;69423;47.608;19.366;2024-01-16T02:03:51;97803.84;;;-0.08;78.49
80116;BME280;69423;47.608;19.366;2024-01-16T02:04:24;97808.78;;;-0.05;78.61
80116;BME280;69423;47.608;19.366;2024-01-16T02:04:56;97808.78;;;-0.05;78.51
80116;BME280;69423;47.608;19.366;2024-01-16T02:05:29;97799.56;;;-0.09;78.30
80116;BME280;69423;47.608;19.366;2024-01-16T02:06:01;97809.38;;;-0.11;78.06
80116;BME280;69423;47.608;19.366;2024-01-16T02:06:33;97811.16;;;-0.12;78.47
80116;BME280;69423;47.608;19.366;2024-01-16T02:07:04;97806.63;;;-0.10;78.53
80116;BME280;69423;47.608;19.366;2024-01-16T02:07:35;97806.47;;;-0.08;77.96
80116;BME280;69423;47.608;19.366;2024-01-16T02:08:07;97812.66;;;-0.09;78.09
80116;BME280;69423;47.608;19.366;2024-01-16T02:08:42;97811.03;;;-0.10;77.88
80116;BME280;69423;47.608;19.366;2024-01-16T02:09:13;97810.19;;;-0.11;77.80
80116;BME280;69423;47.608;19.366;2024-01-16T02:09:44;97802.09;;;-0.17;78.32
80116;BME280;69423;47.608;19.366;2024-01-16T02:10:15;97799.22;;;-0.24;77.90
80116;BME280;69423;47.608;19.366;2024-01-16T02:10:47;97798.41;;;-0.25;78.32
80116;BME280;69423;47.608;19.366;2024-01-16T02:11:20;97802.78;;;-0.25;78.46
80116;BME280;69423;47.608;19.366;2024-01-16T02:11:51;97806.78;;;-0.21;78.01
80116;BME280;69423;47.608;19.366;2024-01-16T02:12:22;97804.03;;;-0.19;77.97
80116;BME280;69423;47.608;19.366;2024-01-16T02:12:53;97803.19;;;-0.20;77.88
80116;BME280;69423;47.608;19.366;2024-01-16T02:13:24;97804.03;;;-0.19;77.91
80116;BME280;69423;47.608;19.366;2024-01-16T02:13:55;97809.41;;;-0.21;78.03
80116;BME280;69423;47.608;19.366;2024-01-16T02:14:26;97810.25;;;-0.21;78.13
80116;BME280;69423;47.608;19.366;2024-01-16T02:14:57;97802.22;;;-0.19;77.92
80116;BME280;69423;47.608;19.366;2024-01-16T02:15:28;97806.94;;;-0.23;77.99
80116;BME280;69423;47.608;19.366;2024-01-16T02:15:59;97807.75;;;-0.22;78.08
80116;BME280;69423;47.608;19.366;2024-01-16T02:16:36;97808.56;;;-0.22;77.64
80116;BME280;69423;47.608;19.366;2024-01-16T02:17:10;97806.25;;;-0.25;77.70
80116;BME280;69423;47.608;19.366;2024-01-16T02:17:41;97808.56;;;-0.22;78.23
80116;BME280;69423;47.608;19.366;2024-01-16T02:18:12;97806.38;;;-0.26;77.80
80116;BME280;69423;47.608;19.366;2024-01-16T02:18:43;97811.22;;;-0.31;78.11
80116;BME280;69423;47.608;19.366;2024-01-16T02:19:14;97798.81;;;-0.29;77.81
80116;BME280;69423;47.608;19.366;2024-01-16T02:19:45;97812.34;;;-0.34;77.67
80116;BME280;69423;47.608;19.366;2024-01-16T02:20:16;97808.47;;;-0.30;77.75
80116;BME280;69423;47.608;19.366;2024-01-16T02:20:47;97808.19;;;-0.27;77.64
80116;BME280;69423;47.608;19.366;2024-01-16T02:21:25;97799.66;;;-0.29;77.73
80116;BME280;69423;47.608;19.366;2024-01-16T02:22:00;97813.25;;;-0.25;77.86
80116;BME280;69423;47.608;19.366;2024-01-16T02:22:32;97820.03;;;-0.23;77.41
80116;BME280;69423;47.608;19.366;2024-01-16T02:23:04;97816.88;;;-0.26;77.64
80116;BME280;69423;47.608;19.366;2024-01-16T02:23:37;97810.66;;;-0.25;77.51
80116;BME280;69423;47.608;19.366;2024-01-16T02:24:10;97805.72;;;-0.38;77.79
80116;BME280;69423;47.608;19.366;2024-01-16T02:24:42;97805.31;;;-0.33;77.71
80116;BME280;69423;47.608;19.366;2024-01-16T02:25:13;97812.06;;;-0.31;77.67
80116;BME280;69423;47.608;19.366;2024-01-16T02:25:44;97814.94;;;-0.34;77.57
80116;BME280;69423;47.608;19.366;2024-01-16T02:26:15;97810.69;;;-0.35;77.65
80116;BME280;69423;47.608;19.366;2024-01-16T02:26:47;97814.94;;;-0.34;77.54
80116;BME280;69423;47.608;19.366;2024-01-16T02:27:18;97810.84;;;-0.36;77.40
80116;BME280;69423;47.608;19.366;2024-01-16T02:27:49;97816.75;;;-0.34;77.61
80116;BME280;69423;47.608;19.366;2024-01-16T02:28:20;97814.69;;;-0.31;77.42
80116;BME280;69423;47.608;19.366;2024-01-16T02:28:51;97816.88;;;-0.36;77.68
80116;BME280;69423;47.608;19.366;2024-01-16T02:29:23;97805.47;;;-0.35;77.45
80116;BME280;69423;47.608;19.366;2024-01-16T02:29:55;97815.25;;;-0.37;77.36
80116;BME280;69423;47.608;19.366;2024-01-16T02:30:26;97813.84;;;-0.31;77.67
80116;BME280;69423;47.608;19.366;2024-01-16T02:30:57;97814.94;;;-0.34;77.47
80116;BME280;69423;47.608;19.366;2024-01-16T02:31:28;97821.84;;;-0.33;77.38
80116;BME280;69423;47.608;19.366;2024-01-16T02:31:59;97821.84;;;-0.33;77.53
80116;BME280;69423;47.608;19.366;2024-01-16T02:32:30;97819.50;;;-0.36;77.28
80116;BME280;69423;47.608;19.366;2024-01-16T02:33:01;97818.25;;;-0.32;77.86
80116;BME280;69423;47.608;19.366;2024-01-16T02:33:32;97827.63;;;-0.29;77.74
80116;BME280;69423;47.608;19.366;2024-01-16T02:34:03;97823.50;;;-0.32;77.63
80116;BME280;69423;47.608;19.366;2024-01-16T02:34:37;97823.78;;;-0.35;77.30
80116;BME280;69423;47.608;19.366;2024-01-16T02:35:08;97818.41;;;-0.33;77.60
80116;BME280;69423;47.608;19.366;2024-01-16T02:35:40;97816.19;;;-0.38;77.56
80116;BME280;69423;47.608;19.366;2024-01-16T02:36:11;97812.75;;;-0.38;77.41
80116;BME280;69423;47.608;19.366;2024-01-16T02:36:42;97824.06;;;-0.38;77.41
80116;BME280;69423;47.608;19.366;2024-01-16T02:37:13;97822.69;;;-0.42;77.50
80116;BME280;69423;47.608;19.366;2024-01-16T02:37:44;97821.75;;;-0.41;77.01
80116;BME280;69423;47.608;19.366;2024-01-16T02:38:15;97831.22;;;-0.40;77.17
80116;BME280;69423;47.608;19.366;2024-01-16T02:38:46;97823.25;;;-0.38;76.90
80116;BME280;69423;47.608;19.366;2024-01-16T02:39:18;97830.84;;;-0.35;76.84
80116;BME280;69423;47.608;19.366;2024-01-16T02:39:49;97829.84;;;-0.34;76.99
80116;BME280;69423;47.608;19.366;2024-01-16T02:40:20;97830.41;;;-0.31;76.77
80116;BME280;69423;47.608;19.366;2024-01-16T02:40:51;97834.66;;;-0.30;76.65
80116;BME280;69423;47.608;19.366;2024-01-16T02:41:22;97836.44;;;-0.30;76.96
80116;BME280;69423;47.608;19.366;2024-01-16T02:41:53;97832.59;;;-0.36;77.14
80116;BME280;69423;47.608;19.366;2024-01-16T02:42:24;97827.94;;;-0.42;77.29
80116;BME280;69423;47.608;19.366;2024-01-16T02:42:55;97832.75;;;-0.37;77.51
80116;BME280;69423;47.608;19.366;2024-01-16T02:43:26;97835.38;;;-0.37;77.04
80116;BME280;69423;47.608;19.366;2024-01-16T02:43:57;97829.59;;;-0.41;77.11
80116;BME280;69423;47.608;19.366;2024-01-16T02:44:28;97827.66;;;-0.39;77.44
80116;BME280;69423;47.608;19.366;2024-01-16T02:44:59;97845.16;;;-0.39;77.11